Dai 18 Bunei Maru — JM6179 — position and weather

sailwx.info

Track history (hours):
 
Tides and Currents Weather Stations Pressure Air Temp Water Temp Dewpoint Dewpoint Depression Visibility Wind Speed Wind Dir Waves Ship Positions

Dai 18 Bunei Maru

Last reported at 2017-Oct-04 04:44 UTC. Time now 2017-Oct-18 16:37 UTC.
Position N 34°36' E 135°05'.
Warning: this ship's position is 14 days out of date.

Length 58 m.

Type: Ship. MMSI: 431600063.

Date/timePositionNaut miles runAvg speedWind from/ knotsBaromVisibWave heightAir tempDewpointWater temp
2017-Oct-04 04:44N 34°36' E 135°05'3 9.7
2017-Oct-04 04:28N 34°36' E 135°08'510.9
2017-Oct-04 03:59N 34°37' E 135°14'511.2
2017-Oct-04 03:30N 34°38' E 135°21'2 0.1
2017-Oct-03 07:39N 34°37' E 135°22'2 9.7
2017-Oct-03 07:25N 34°35' E 135°20'5 9.6
2017-Oct-03 06:54N 34°32' E 135°17'220 7.0
2017-Oct-01 23:19N 35°07' E 139°41'311.2
2017-Oct-01 23:00N 35°10' E 139°44'510.4
2017-Oct-01 22:29N 35°15' E 139°46'610.8
2017-Oct-01 21:57N 35°20' E 139°42'  
2017-Sep-29 16:36N 35°24' E 139°46'210.9
2017-Sep-29 16:27N 35°22' E 139°45'8 9.7
2017-Sep-29 15:38N 35°15' E 139°47'110.5
2017-Sep-29 15:31N 35°13' E 139°47'510.7
2017-Sep-29 15:01N 35°08' E 139°46'611.3
2017-Sep-29 14:30N 35°04' E 139°41'  
Track history (hours):
 
Tides and Currents Weather Stations Pressure Air Temp Water Temp Dewpoint Dewpoint Depression Visibility Wind Speed Wind Dir Waves Ship Positions

Dai 18 Bunei Maru

Last reported at 2017-Oct-04 04:44 UTC. Time now 2017-Oct-18 16:37 UTC.
Position N 34°36' E 135°05'.
Warning: this ship's position is 14 days out of date.

Length 58 m.

Type: Ship. MMSI: 431600063.

Date/timePositionNaut miles runAvg speedWind from/ knotsBaromVisibWave heightAir tempDewpointWater temp
2017-Oct-04 04:44N 34°36' E 135°05'3 9.7
2017-Oct-04 04:28N 34°36' E 135°08'510.9
2017-Oct-04 03:59N 34°37' E 135°14'511.2
2017-Oct-04 03:30N 34°38' E 135°21'2 0.1
2017-Oct-03 07:39N 34°37' E 135°22'2 9.7
2017-Oct-03 07:25N 34°35' E 135°20'5 9.6
2017-Oct-03 06:54N 34°32' E 135°17'220 7.0
2017-Oct-01 23:19N 35°07' E 139°41'311.2
2017-Oct-01 23:00N 35°10' E 139°44'510.4
2017-Oct-01 22:29N 35°15' E 139°46'610.8
2017-Oct-01 21:57N 35°20' E 139°42'  
2017-Sep-29 16:36N 35°24' E 139°46'210.9
2017-Sep-29 16:27N 35°22' E 139°45'8 9.7
2017-Sep-29 15:38N 35°15' E 139°47'110.5
2017-Sep-29 15:31N 35°13' E 139°47'510.7
2017-Sep-29 15:01N 35°08' E 139°46'611.3
2017-Sep-29 14:30N 35°04' E 139°41'  

Dump ship's entire track history